createdAt,value
2023-02-22T00:00:59.213Z,5.16
2023-02-22T00:03:21.677Z,5.06
2023-02-22T00:05:21.658Z,5.08
2023-02-22T00:07:21.631Z,5
2023-02-22T00:09:21.705Z,4.96
2023-02-22T00:11:21.659Z,4.91
2023-02-22T00:13:21.620Z,4.94
2023-02-22T00:15:21.659Z,4.92
2023-02-22T00:18:58.087Z,4.88
2023-02-22T00:20:58.028Z,4.85
2023-02-22T00:22:58.035Z,4.73
2023-02-22T00:24:58.056Z,4.72
2023-02-22T00:26:58.049Z,4.77
2023-02-22T00:28:58.021Z,4.67
2023-02-22T00:30:58.065Z,4.66
2023-02-22T00:34:17.555Z,4.65
2023-02-22T00:36:17.309Z,4.53
2023-02-22T00:38:17.301Z,4.51
2023-02-22T00:40:17.306Z,4.44
2023-02-22T00:42:17.320Z,4.5
2023-02-22T00:44:17.270Z,4.53
2023-02-22T00:46:17.683Z,4.46
2023-02-22T00:49:33.248Z,4.23
2023-02-22T00:51:33.181Z,4.39
2023-02-22T00:53:33.237Z,4.34
2023-02-22T00:55:33.196Z,4.33
2023-02-22T00:57:33.221Z,4.26
2023-02-22T00:59:33.193Z,4.22
2023-02-22T01:01:33.262Z,4.19
2023-02-22T01:04:06.569Z,4.18
2023-02-22T01:06:06.540Z,4.2
2023-02-22T01:08:06.628Z,4.22
2023-02-22T01:10:06.548Z,4.18
2023-02-22T01:12:06.591Z,4.17
2023-02-22T01:14:06.530Z,4.08
2023-02-22T01:16:06.509Z,4.03
2023-02-22T01:19:55.588Z,3.86
2023-02-22T01:21:55.549Z,3.92
2023-02-22T01:23:55.549Z,3.86
2023-02-22T01:25:55.580Z,3.88
2023-02-22T01:27:55.531Z,3.89
2023-02-22T01:29:55.557Z,3.85
2023-02-22T01:31:55.608Z,3.82
2023-02-22T01:34:20.270Z,3.8
2023-02-22T01:36:20.267Z,3.79
2023-02-22T01:38:20.297Z,3.89
2023-02-22T01:40:20.262Z,3.85
2023-02-22T01:42:20.302Z,3.84
2023-02-22T01:44:20.237Z,3.65
2023-02-22T01:46:20.288Z,3.65
2023-02-22T01:48:20.306Z,3.62
2023-02-22T01:50:14.501Z,3.55
2023-02-22T01:52:14.529Z,3.38
2023-02-22T01:54:14.636Z,3.32
2023-02-22T01:56:14.533Z,3.41
2023-02-22T01:58:14.577Z,3.53
2023-02-22T02:00:14.498Z,3.45
2023-02-22T02:02:14.603Z,3.49
2023-02-22T02:05:09.618Z,3.44
2023-02-22T02:07:09.629Z,3.45
2023-02-22T02:09:09.662Z,3.42
2023-02-22T02:11:09.599Z,3.45
2023-02-22T02:13:09.592Z,3.44
2023-02-22T02:15:09.637Z,3.42
2023-02-22T02:17:09.581Z,3.44
2023-02-22T02:19:58.360Z,3.19
2023-02-22T02:21:58.025Z,3.06
2023-02-22T02:23:58.012Z,3.17
2023-02-22T02:25:58.072Z,3.13
2023-02-22T02:27:58.179Z,3.24
2023-02-22T02:29:58.068Z,3.28
2023-02-22T02:31:58.040Z,3.28
2023-02-22T02:35:33.887Z,3.2
2023-02-22T02:37:33.640Z,3.14
2023-02-22T02:39:33.506Z,3.08
2023-02-22T02:41:33.529Z,3.05
2023-02-22T02:43:33.507Z,3.04
2023-02-22T02:45:33.555Z,2.99
2023-02-22T02:47:33.571Z,2.95
2023-02-22T02:51:02.451Z,2.88
2023-02-22T02:53:02.467Z,2.83
2023-02-22T02:55:02.408Z,2.91
2023-02-22T02:57:02.497Z,2.9
2023-02-22T02:59:02.415Z,2.84
2023-02-22T03:01:02.407Z,2.86
2023-02-22T03:03:02.470Z,2.85
2023-02-22T03:06:09.987Z,2.81
2023-02-22T03:08:09.986Z,2.76
2023-02-22T03:10:09.935Z,2.71
2023-02-22T03:12:09.984Z,2.66
2023-02-22T03:14:09.964Z,2.68
2023-02-22T03:16:09.989Z,2.72
2023-02-22T03:18:09.968Z,2.78
2023-02-22T03:21:05.658Z,2.77
2023-02-22T03:23:05.709Z,2.65
2023-02-22T03:25:05.637Z,2.62
2023-02-22T03:27:05.687Z,2.61
2023-02-22T03:29:05.682Z,2.46
2023-02-22T03:31:05.674Z,2.48
2023-02-22T03:33:05.635Z,2.53
2023-02-22T03:36:23.419Z,2.43
2023-02-22T03:38:23.444Z,2.43
2023-02-22T03:40:23.375Z,2.34
2023-02-22T03:42:23.383Z,2.36
2023-02-22T03:44:23.423Z,2.36
2023-02-22T03:46:23.392Z,2.37
2023-02-22T03:48:23.389Z,2.26
2023-02-22T03:51:05.540Z,2.25
2023-02-22T03:53:05.789Z,2.22
2023-02-22T03:55:05.625Z,2.21
2023-02-22T03:57:05.534Z,2.17
2023-02-22T03:59:05.556Z,2.2
2023-02-22T04:01:05.538Z,2.19
2023-02-22T04:03:05.620Z,2.22
2023-02-22T04:06:44.649Z,2.18
2023-02-22T04:08:44.599Z,2.17
2023-02-22T04:10:44.658Z,2.03
2023-02-22T04:12:44.639Z,2.08
2023-02-22T04:14:44.653Z,2.1
2023-02-22T04:16:44.615Z,2.15
2023-02-22T04:18:44.647Z,2.12
2023-02-22T04:21:07.525Z,2.02
2023-02-22T04:23:07.601Z,2.03
2023-02-22T04:25:07.507Z,2.09
2023-02-22T04:27:07.529Z,2.09
2023-02-22T04:29:07.549Z,2.09
2023-02-22T04:31:07.531Z,2.14
2023-02-22T04:33:07.541Z,2.12
2023-02-22T04:35:07.504Z,2.06
2023-02-22T04:37:07.574Z,2.02
2023-02-22T04:39:07.622Z,2.1
2023-02-22T04:41:07.554Z,2.11
2023-02-22T04:43:07.612Z,2.05
2023-02-22T04:45:07.554Z,1.96
2023-02-22T04:47:07.537Z,1.93
2023-02-22T04:49:07.594Z,2
2023-02-22T04:52:05.170Z,1.88
2023-02-22T04:54:05.168Z,1.96
2023-02-22T04:56:05.132Z,2.04
2023-02-22T04:58:05.160Z,1.87
2023-02-22T05:00:05.212Z,1.87
2023-02-22T05:02:05.144Z,1.88
2023-02-22T05:04:05.195Z,1.91
2023-02-22T05:07:20.510Z,1.92
2023-02-22T05:09:20.440Z,1.8
2023-02-22T05:11:20.487Z,1.79
2023-02-22T05:13:20.474Z,1.84
2023-02-22T05:15:20.493Z,1.85
2023-02-22T05:17:20.499Z,1.8
2023-02-22T05:19:20.481Z,1.81
2023-02-22T05:21:46.099Z,1.81
2023-02-22T05:23:46.116Z,1.53
2023-02-22T05:25:46.076Z,1.34
2023-02-22T05:27:46.081Z,1.51
2023-02-22T05:29:46.102Z,1.66
2023-02-22T05:31:46.163Z,1.7
2023-02-22T05:33:46.119Z,1.78
2023-02-22T05:35:46.055Z,1.77
2023-02-22T05:37:33.118Z,1.8
2023-02-22T05:39:33.172Z,1.85
2023-02-22T05:41:33.124Z,1.95
2023-02-22T05:43:33.154Z,1.85
2023-02-22T05:45:33.146Z,1.78
2023-02-22T05:47:33.192Z,1.89
2023-02-22T05:49:33.128Z,1.95
2023-02-22T05:52:06.158Z,2.03
2023-02-22T05:54:06.097Z,2.12
2023-02-22T05:56:06.127Z,2.17
2023-02-22T05:58:06.152Z,2.23
2023-02-22T06:00:06.084Z,2.22
2023-02-22T06:02:06.126Z,2.27
2023-02-22T06:04:06.185Z,2.29
2023-02-22T06:06:06.110Z,2.33
2023-02-22T06:07:46.473Z,2.36
2023-02-22T06:09:46.479Z,2.39
2023-02-22T06:11:46.493Z,2.44
2023-02-22T06:13:46.587Z,2.62
2023-02-22T06:15:46.511Z,2.88
2023-02-22T06:17:46.447Z,3.22
2023-02-22T06:19:46.455Z,3.18
2023-02-22T06:22:38.534Z,3.22
2023-02-22T06:24:38.523Z,3.07
2023-02-22T06:26:38.473Z,3.19
2023-02-22T06:28:38.501Z,3.37
2023-02-22T06:30:38.623Z,3.4
2023-02-22T06:32:38.479Z,3.63
2023-02-22T06:34:38.515Z,3.48
2023-02-22T06:38:20.612Z,3.94
2023-02-22T06:40:20.632Z,3.89
2023-02-22T06:42:20.636Z,3.62
2023-02-22T06:44:20.612Z,3.55
2023-02-22T06:46:20.646Z,3.58
2023-02-22T06:48:20.608Z,3.72
2023-02-22T06:50:20.643Z,3.84
2023-02-22T06:53:00.670Z,3.82
2023-02-22T06:55:00.762Z,3.9
2023-02-22T06:57:00.688Z,4.09
2023-02-22T06:59:02.602Z,4.22
2023-02-22T07:01:00.788Z,4.21
2023-02-22T07:03:00.772Z,4
2023-02-22T07:05:00.697Z,4.2
2023-02-22T07:08:03.651Z,4.18
2023-02-22T07:10:03.737Z,4.26
2023-02-22T07:12:03.651Z,4.75
2023-02-22T07:14:03.669Z,4.75
2023-02-22T07:16:03.735Z,4.84
2023-02-22T07:18:03.652Z,5.15
2023-02-22T07:20:03.641Z,4.82
2023-02-22T13:28:46.721Z,16.16
2023-02-22T13:30:46.853Z,16.67
2023-02-22T13:32:46.701Z,17.2
2023-02-22T13:34:46.656Z,17.59
2023-02-22T13:36:46.622Z,17.84
2023-02-22T13:38:46.583Z,17.92
2023-02-22T13:40:46.717Z,17.84
2023-02-22T13:42:46.796Z,17.76
2023-02-22T13:43:51.855Z,17.69
2023-02-22T13:45:51.960Z,17.87
2023-02-22T13:47:51.814Z,17.82
2023-02-22T13:49:51.831Z,17.24
2023-02-22T13:51:51.872Z,17.39
2023-02-22T13:53:52.093Z,17.25
2023-02-22T13:55:51.805Z,17.45
2023-02-22T13:57:51.884Z,17.3
2023-02-22T13:59:41.925Z,17.47
2023-02-22T14:01:42.015Z,17.43
2023-02-22T14:03:42.009Z,17.55
2023-02-22T14:05:42.026Z,17.29
2023-02-22T14:07:42.000Z,17.55
2023-02-22T14:09:41.973Z,17.69
2023-02-22T14:11:41.953Z,17.85
2023-02-22T14:15:07.272Z,17.87
2023-02-22T14:17:05.389Z,17.98
2023-02-22T14:19:05.394Z,17.79
2023-02-22T14:21:05.524Z,17.54
2023-02-22T14:23:05.441Z,17.5
2023-02-22T14:25:05.354Z,17.35
2023-02-22T14:27:05.378Z,17.39
2023-02-22T14:29:56.180Z,17.4
2023-02-22T14:31:56.374Z,17.36
2023-02-22T14:33:56.210Z,17.27
2023-02-22T14:35:56.191Z,17.31
2023-02-22T14:37:56.205Z,17.29
2023-02-22T14:39:56.155Z,17.21
2023-02-22T14:41:56.203Z,17.17
2023-02-22T14:44:52.580Z,17.18
2023-02-22T14:46:52.396Z,17.18
2023-02-22T14:48:52.413Z,17.02
2023-02-22T14:50:52.340Z,16.83
2023-02-22T14:52:52.399Z,16.91
2023-02-22T14:54:52.310Z,16.83
2023-02-22T14:56:52.306Z,16.83
2023-02-22T14:59:43.458Z,16.71
2023-02-22T15:01:55.613Z,16.59
2023-02-22T15:03:45.360Z,16.5
2023-02-22T15:05:43.326Z,16.43
2023-02-22T15:07:43.324Z,16.34
2023-02-22T15:09:43.336Z,16.25
2023-02-22T15:11:43.306Z,16.13
2023-02-22T15:13:43.427Z,15.89
2023-02-22T15:15:22.638Z,15.79
2023-02-22T15:17:22.735Z,15.71
2023-02-22T15:19:22.658Z,15.63
2023-02-22T15:21:22.786Z,15.55
2023-02-22T15:23:22.629Z,15.46
2023-02-22T15:25:22.726Z,15.32
2023-02-22T15:27:22.773Z,15.21
2023-02-22T15:30:27.755Z,15
2023-02-22T15:32:27.749Z,14.93
2023-02-22T15:34:27.729Z,14.81
2023-02-22T15:36:27.701Z,14.73
2023-02-22T15:38:27.594Z,14.53
2023-02-22T15:40:27.527Z,14.47
2023-02-22T15:42:29.690Z,14.46
2023-02-22T15:45:34.988Z,14.27
2023-02-22T15:47:34.897Z,14.16
2023-02-22T15:49:34.971Z,14.12
2023-02-22T15:51:34.930Z,14
2023-02-22T15:53:34.966Z,13.91
2023-02-22T15:55:34.917Z,13.84
2023-02-22T15:57:34.914Z,13.71
2023-02-22T16:00:23.626Z,13.39
2023-02-22T16:02:23.687Z,13.35
2023-02-22T16:04:23.598Z,13.23
2023-02-22T16:06:23.574Z,13.15
2023-02-22T16:08:23.668Z,13.11
2023-02-22T16:10:23.608Z,12.96
2023-02-22T16:12:23.611Z,12.86
2023-02-22T16:15:41.881Z,12.74
2023-02-22T16:17:52.600Z,12.68
2023-02-22T16:19:42.686Z,12.47
2023-02-22T16:21:41.846Z,12.41
2023-02-22T16:23:41.903Z,12.33
2023-02-22T16:25:41.865Z,12.2
2023-02-22T16:27:41.926Z,12.25
2023-02-22T16:30:57.343Z,12.17
2023-02-22T16:32:57.355Z,12.13
2023-02-22T16:34:57.289Z,12.03
2023-02-22T16:36:57.194Z,11.92
2023-02-22T16:38:57.183Z,11.82
2023-02-22T16:40:57.202Z,11.76
2023-02-22T16:42:57.156Z,11.84
2023-02-22T16:46:04.200Z,11.81
2023-02-22T16:48:04.161Z,11.73
2023-02-22T16:50:04.110Z,11.69
2023-02-22T16:52:04.140Z,11.69
2023-02-22T16:54:04.132Z,11.46
2023-02-22T16:56:04.137Z,11.54
2023-02-22T16:58:04.151Z,11.55
2023-02-22T17:01:43.858Z,11.38
2023-02-22T17:03:43.656Z,11.4
2023-02-22T17:05:43.708Z,11.39
2023-02-22T17:07:43.707Z,11.27
2023-02-22T17:09:43.714Z,11.18
2023-02-22T17:11:43.848Z,11.05
2023-02-22T17:13:43.660Z,10.9
2023-02-22T17:16:09.546Z,10.9
2023-02-22T17:18:10.694Z,10.92
2023-02-22T17:20:09.502Z,10.9
2023-02-22T17:22:09.526Z,10.87
2023-02-22T17:24:09.514Z,10.82
2023-02-22T17:26:09.507Z,10.8
2023-02-22T17:28:09.561Z,10.65
2023-02-22T17:30:09.529Z,10.54
2023-02-22T17:31:37.615Z,10.6
2023-02-22T17:33:37.605Z,10.66
2023-02-22T17:35:37.942Z,10.52
2023-02-22T17:37:37.736Z,10.6
2023-02-22T17:39:37.725Z,10.6
2023-02-22T17:41:40.132Z,10.63
2023-02-22T17:43:37.825Z,10.55
2023-02-22T17:46:40.505Z,10.44
2023-02-22T17:48:40.566Z,10.42
2023-02-22T17:50:40.539Z,10.36
2023-02-22T17:52:40.526Z,10.2
2023-02-22T17:54:40.467Z,10.19
2023-02-22T17:56:40.576Z,10.19
2023-02-22T17:58:40.607Z,10.13
2023-02-22T18:01:41.925Z,10.06
2023-02-22T18:03:41.862Z,10.01
2023-02-22T18:05:41.842Z,10.02
2023-02-22T18:07:41.861Z,9.96
2023-02-22T18:09:41.989Z,9.99
2023-02-22T18:11:41.936Z,9.9
2023-02-22T18:13:41.914Z,9.81
2023-02-22T18:15:41.889Z,9.74
2023-02-22T18:17:27.953Z,9.69
2023-02-22T18:19:27.775Z,9.68
2023-02-22T18:21:27.722Z,9.69
2023-02-22T18:23:28.099Z,9.74
2023-02-22T18:25:27.740Z,9.7
2023-02-22T18:27:27.714Z,9.61
2023-02-22T18:29:27.820Z,9.55
2023-02-22T18:32:18.635Z,9.49
2023-02-22T18:34:18.449Z,9.34
2023-02-22T18:36:18.833Z,9.36
2023-02-22T18:38:18.358Z,9.33
2023-02-22T18:40:18.495Z,9.19
2023-02-22T18:42:18.389Z,9.17
2023-02-22T18:44:18.448Z,9.13
2023-02-22T18:47:07.062Z,9.14
2023-02-22T18:49:07.165Z,9.1
2023-02-22T18:51:07.062Z,8.97
2023-02-22T18:53:07.069Z,9.08
2023-02-22T18:55:07.170Z,9.13
2023-02-22T18:57:06.987Z,9.1
2023-02-22T18:59:07.013Z,9.12
2023-02-22T19:01:06.998Z,9.07
2023-02-22T19:02:56.639Z,8.94
2023-02-22T19:04:56.446Z,8.88
2023-02-22T19:06:56.409Z,8.86
2023-02-22T19:08:56.433Z,8.81
2023-02-22T19:10:56.940Z,8.76
2023-02-22T19:12:56.405Z,8.79
2023-02-22T19:14:56.415Z,8.77
2023-02-22T19:18:01.573Z,8.78
2023-02-22T19:20:01.469Z,8.73
2023-02-22T19:22:01.464Z,8.78
2023-02-22T19:24:01.513Z,8.77
2023-02-22T19:26:01.418Z,8.73
2023-02-22T19:28:01.419Z,8.65
2023-02-22T19:30:01.514Z,8.58
2023-02-22T19:33:20.786Z,8.59
2023-02-22T19:35:20.700Z,8.66
2023-02-22T19:37:20.702Z,8.66
2023-02-22T19:39:20.812Z,8.65
2023-02-22T19:41:20.876Z,8.66
2023-02-22T19:43:20.736Z,8.65
2023-02-22T19:45:20.709Z,8.71
2023-02-22T19:48:03.604Z,8.58
2023-02-22T19:50:03.699Z,8.53
2023-02-22T19:52:03.607Z,8.58
2023-02-22T19:54:03.624Z,8.56
2023-02-22T19:56:05.617Z,8.6
2023-02-22T19:58:03.642Z,8.56
2023-02-22T20:00:03.610Z,8.44
2023-02-22T20:03:57.821Z,8.35
2023-02-22T20:05:57.714Z,8.34
2023-02-22T20:07:57.615Z,8.35
2023-02-22T20:09:57.685Z,8.33
2023-02-22T20:11:57.614Z,8.38
2023-02-22T20:13:57.642Z,8.29
2023-02-22T20:15:57.682Z,8.3
2023-02-22T20:18:12.847Z,8.29
2023-02-22T20:20:12.997Z,8.28
2023-02-22T20:22:12.867Z,8.25
2023-02-22T20:24:12.931Z,8.2
2023-02-22T20:26:12.889Z,8.15
2023-02-22T20:28:12.848Z,8.15
2023-02-22T20:30:12.893Z,8.09
2023-02-22T20:32:13.111Z,8.06
2023-02-22T20:34:02.343Z,8.02
2023-02-22T20:36:02.221Z,8.03
2023-02-22T20:38:02.217Z,7.97
2023-02-22T20:40:03.744Z,7.94
2023-02-22T20:42:02.185Z,7.89
2023-02-22T20:44:02.182Z,7.83
2023-02-22T20:46:02.294Z,7.84
2023-02-22T20:49:04.563Z,7.75
2023-02-22T20:51:04.601Z,7.73
2023-02-22T20:53:04.560Z,7.75
2023-02-22T20:55:04.650Z,7.72
2023-02-22T20:57:04.560Z,7.59
2023-02-22T20:59:04.576Z,7.5
2023-02-22T21:01:04.547Z,7.51
2023-02-22T21:04:07.386Z,7.37
2023-02-22T21:06:07.366Z,7.4
2023-02-22T21:08:07.323Z,7.33
2023-02-22T21:10:07.458Z,7.31
2023-02-22T21:12:07.550Z,7.34
2023-02-22T21:14:07.545Z,7.32
2023-02-22T21:16:07.361Z,7.3
2023-02-22T21:18:49.470Z,7.27
2023-02-22T21:20:49.520Z,7.2
2023-02-22T21:22:49.514Z,7.21
2023-02-22T21:24:49.477Z,7.18
2023-02-22T21:26:49.517Z,7.11
2023-02-22T21:28:51.600Z,7.15
2023-02-22T21:30:49.511Z,7.04
2023-02-22T21:32:49.499Z,7.03
2023-02-22T21:34:03.262Z,7.09
2023-02-22T21:36:03.230Z,7.11
2023-02-22T21:38:03.288Z,7.03
2023-02-22T21:40:03.251Z,7.08
2023-02-22T21:42:03.238Z,6.98
2023-02-22T21:44:03.248Z,6.88
2023-02-22T21:46:03.301Z,6.87
2023-02-22T21:48:03.244Z,6.91
2023-02-22T21:49:35.350Z,6.9
2023-02-22T21:51:35.333Z,6.84
2023-02-22T21:53:35.321Z,6.79
2023-02-22T21:55:35.303Z,6.77
2023-02-22T21:57:35.352Z,6.81
2023-02-22T21:59:35.285Z,6.77
2023-02-22T22:01:35.373Z,6.71
2023-02-22T22:05:04.922Z,6.72
2023-02-22T22:07:04.660Z,6.68
2023-02-22T22:09:04.678Z,6.61
2023-02-22T22:11:05.822Z,6.61
2023-02-22T22:13:04.759Z,6.6
2023-02-22T22:15:04.877Z,6.56
2023-02-22T22:17:04.612Z,6.48
2023-02-22T22:19:41.946Z,6.4
2023-02-22T22:21:41.922Z,6.45
2023-02-22T22:23:41.972Z,6.47
2023-02-22T22:25:41.931Z,6.49
2023-02-22T22:27:41.968Z,6.46
2023-02-22T22:29:41.979Z,6.38
2023-02-22T22:31:42.051Z,6.34
2023-02-22T22:35:24.626Z,6.33
2023-02-22T22:37:24.575Z,6.34
2023-02-22T22:39:24.646Z,6.18
2023-02-22T22:41:24.590Z,6.28
2023-02-22T22:43:24.599Z,6.22
2023-02-22T22:45:24.607Z,6.27
2023-02-22T22:47:24.643Z,6.17
2023-02-22T22:50:37.954Z,6.05
2023-02-22T22:52:37.946Z,6.05
2023-02-22T22:54:37.925Z,6.03
2023-02-22T22:56:38.151Z,6.01
2023-02-22T22:58:37.983Z,5.98
2023-02-22T23:00:37.955Z,6.02
2023-02-22T23:02:38.000Z,5.93
2023-02-22T23:05:18.139Z,6.01
2023-02-22T23:07:18.184Z,6.01
2023-02-22T23:09:18.126Z,5.92
2023-02-22T23:11:18.464Z,5.85
2023-02-22T23:13:18.185Z,5.84
2023-02-22T23:15:18.128Z,5.83
2023-02-22T23:17:18.201Z,5.78
2023-02-22T23:20:44.650Z,5.72
2023-02-22T23:22:44.570Z,5.64
2023-02-22T23:24:44.659Z,5.58
2023-02-22T23:26:44.566Z,5.56
2023-02-22T23:28:44.585Z,5.59
2023-02-22T23:30:44.597Z,5.59
2023-02-22T23:32:44.641Z,5.43
2023-02-22T23:35:30.169Z,5.5
2023-02-22T23:37:30.226Z,5.44
2023-02-22T23:39:30.217Z,5.44
2023-02-22T23:41:30.184Z,5.51
2023-02-22T23:43:30.216Z,5.32
2023-02-22T23:45:30.163Z,5.4
2023-02-22T23:47:30.157Z,5.38
2023-02-22T23:51:19.558Z,5.38
2023-02-22T23:53:19.374Z,5.31
2023-02-22T23:55:19.366Z,5.31
2023-02-22T23:57:19.354Z,5.3
2023-02-22T23:59:19.353Z,5.28
